createdAt,value
2023-01-07T00:01:28.794Z,99817.53
2023-01-07T00:03:57.175Z,99817.66
2023-01-07T00:06:32.744Z,99811.53
2023-01-07T00:09:00.245Z,99824.47
2023-01-07T00:11:29.816Z,99847.97
2023-01-07T00:13:58.422Z,99802.66
2023-01-07T00:16:29.755Z,99832.19
2023-01-07T00:18:58.448Z,99851.69
2023-01-07T00:21:26.705Z,99857.00
2023-01-07T00:23:55.419Z,99851.56
2023-01-07T00:26:23.807Z,99866.63
2023-01-07T00:28:52.459Z,99847.22
2023-01-07T00:31:21.907Z,99851.13
2023-01-07T00:33:52.317Z,99857.22
2023-01-07T00:36:19.384Z,99863.59
2023-01-07T00:38:46.405Z,99864.47
2023-01-07T00:41:20.595Z,99873.06
2023-01-07T00:43:47.268Z,99879.09
2023-01-07T00:46:15.417Z,99832.75
2023-01-07T00:48:43.101Z,99877.84
2023-01-07T00:51:11.643Z,99863.63
2023-01-07T00:53:40.544Z,99878.06
2023-01-07T00:56:08.845Z,99889.53
2023-01-07T00:58:35.317Z,99862.97
2023-01-07T01:01:02.981Z,99847.22
2023-01-07T01:03:31.171Z,99865.47
2023-01-07T01:06:05.128Z,99795.66
2023-01-07T01:08:32.488Z,99793.78
2023-01-07T01:11:09.639Z,99790.06
2023-01-07T01:13:36.986Z,99741.06
2023-01-07T01:16:08.665Z,99803.09
2023-01-07T01:18:35.718Z,99737.06
2023-01-07T01:21:11.579Z,99792.09
2023-01-07T01:23:38.439Z,99798.22
2023-01-07T01:26:06.154Z,99812.38
2023-01-07T01:28:33.862Z,99825.09
2023-01-07T01:31:00.865Z,99816.25
2023-01-07T01:33:27.538Z,99774.03
2023-01-07T01:35:57.208Z,99820.09
2023-01-07T01:38:24.197Z,99804.44
2023-01-07T01:40:50.752Z,99820.09
2023-01-07T01:43:36.315Z,99784.34
2023-01-07T01:46:25.805Z,99795.16
2023-01-07T01:48:58.666Z,99794.13
2023-01-07T01:51:27.448Z,99763.63
2023-01-07T01:53:59.916Z,99793.31
2023-01-07T01:56:35.887Z,99800.13
2023-01-07T01:59:06.677Z,99779.34
2023-01-07T02:01:39.904Z,99686.16
2023-01-07T02:04:12.855Z,99788.63
2023-01-07T02:06:49.947Z,99792.06
2023-01-07T02:09:16.753Z,99790.34
2023-01-07T02:11:59.952Z,99805.09
2023-01-07T02:14:26.535Z,99782.28
2023-01-07T02:17:32.753Z,99799.25
2023-01-07T02:20:08.581Z,99792.91
2023-01-07T02:23:02.513Z,99806.25
2023-01-07T02:26:02.569Z,99775.50
2023-01-07T02:28:31.759Z,99811.31
2023-01-07T02:31:27.893Z,99795.44
2023-01-07T02:34:15.864Z,99820.56
2023-01-07T02:37:04.617Z,99800.81
2023-01-07T02:39:38.621Z,99729.91
2023-01-07T02:42:15.908Z,99788.31
2023-01-07T02:45:00.476Z,99789.84
2023-01-07T02:47:33.283Z,99747.44
2023-01-07T02:49:59.778Z,99743.19
2023-01-07T02:52:28.980Z,99718.03
2023-01-07T02:55:12.198Z,99701.69
2023-01-07T02:57:44.516Z,99682.53
2023-01-07T03:00:32.126Z,99685.75
2023-01-07T03:03:29.768Z,99664.50
2023-01-07T03:06:19.534Z,99645.38
2023-01-07T03:09:10.316Z,99583.00
2023-01-07T03:11:48.638Z,99641.28
2023-01-07T03:14:31.565Z,99591.50
2023-01-07T03:17:02.812Z,99632.03
2023-01-07T03:19:32.641Z,99619.13
2023-01-07T03:22:01.945Z,99608.94
2023-01-07T03:24:31.159Z,99557.53
2023-01-07T03:27:00.413Z,99607.34
2023-01-07T03:29:28.017Z,99599.31
2023-01-07T03:32:14.288Z,99580.59
2023-01-07T03:34:42.748Z,99608.59
2023-01-07T03:37:16.410Z,99599.63
2023-01-07T03:39:45.146Z,99552.13
2023-01-07T03:42:13.304Z,99620.94
2023-01-07T03:44:39.908Z,99612.31
2023-01-07T03:47:07.358Z,99578.44
2023-01-07T03:49:36.921Z,99581.16
2023-01-07T03:52:04.065Z,99605.09
2023-01-07T03:54:30.642Z,99597.31
2023-01-07T03:56:57.156Z,99589.03
2023-01-07T03:59:23.725Z,99579.97
2023-01-07T04:01:50.445Z,99571.59
2023-01-07T04:04:17.441Z,99539.53
2023-01-07T04:06:44.035Z,99500.47
2023-01-07T04:09:12.204Z,99526.19
2023-01-07T04:11:38.736Z,99530.28
2023-01-07T04:14:05.186Z,99468.44
2023-01-07T04:16:31.656Z,99489.38
2023-01-07T04:18:58.192Z,99541.81
2023-01-07T04:21:24.761Z,99584.28
2023-01-07T04:23:51.305Z,99579.97
2023-01-07T04:26:17.899Z,99542.63
2023-01-07T04:28:44.400Z,99522.69
2023-01-07T04:31:11.067Z,99508.53
2023-01-07T04:33:37.633Z,99505.47
2023-01-07T04:36:04.484Z,99497.53
2023-01-07T04:38:31.274Z,99497.75
2023-01-07T04:40:57.889Z,99483.94
2023-01-07T04:43:24.398Z,99466.31
2023-01-07T04:45:51.156Z,99505.25
2023-01-07T04:48:17.676Z,99533.56
2023-01-07T04:50:44.231Z,99543.84
2023-01-07T04:53:10.682Z,99547.72
2023-01-07T04:55:37.216Z,99591.09
2023-01-07T04:58:03.743Z,99578.19
2023-01-07T05:00:30.345Z,99515.66
2023-01-07T05:02:56.855Z,99538.19
2023-01-07T05:05:23.398Z,99632.25
2023-01-07T05:07:49.840Z,99577.50
2023-01-07T05:10:16.360Z,99649.59
2023-01-07T05:12:42.788Z,99665.78
2023-01-07T05:15:09.837Z,99657.72
2023-01-07T05:17:36.386Z,99615.22
2023-01-07T05:20:03.931Z,99638.47
2023-01-07T05:22:30.353Z,99719.13
2023-01-07T05:24:56.953Z,99728.00
2023-01-07T05:27:23.436Z,99758.47
2023-01-07T05:29:49.959Z,99759.50
2023-01-07T05:32:16.584Z,99799.41
2023-01-07T05:34:43.162Z,99743.91
2023-01-07T05:37:09.664Z,99794.09
2023-01-07T05:39:36.146Z,99816.56
2023-01-07T05:42:02.689Z,99817.31
2023-01-07T05:44:29.183Z,99858.22
2023-01-07T05:46:55.817Z,99848.06
2023-01-07T05:49:22.365Z,99853.59
2023-01-07T05:51:48.885Z,99852.75
2023-01-07T05:54:15.321Z,99877.72
2023-01-07T05:56:41.753Z,99892.78
2023-01-07T05:59:08.232Z,99895.53
2023-01-07T06:01:34.787Z,99926.00
2023-01-07T06:04:01.278Z,99934.13
2023-01-07T06:06:27.822Z,99928.50
2023-01-07T06:08:54.268Z,99923.91
2023-01-07T06:11:20.801Z,99923.34
2023-01-07T06:13:47.291Z,99942.72
2023-01-07T06:16:14.412Z,99851.16
2023-01-07T06:18:40.924Z,99923.56
2023-01-07T06:21:07.568Z,99911.63
2023-01-07T06:23:34.147Z,99901.22
2023-01-07T06:26:00.589Z,99907.00
2023-01-07T06:28:27.175Z,99888.41
2023-01-07T06:30:53.691Z,99888.19
2023-01-07T06:33:21.294Z,99833.56
2023-01-07T06:35:47.784Z,99893.31
2023-01-07T06:38:14.498Z,99925.66
2023-01-07T06:40:41.034Z,99938.56
2023-01-07T06:43:07.609Z,99964.63
2023-01-07T06:45:34.181Z,99980.09
2023-01-07T06:48:00.695Z,99966.00
2023-01-07T06:50:27.215Z,99989.59
2023-01-07T06:52:53.741Z,99993.38
2023-01-07T06:55:20.223Z,99926.69
2023-01-07T06:57:46.690Z,99978.88
2023-01-07T07:00:13.616Z,100000.38
2023-01-07T07:02:40.140Z,100011.59
2023-01-07T07:05:06.846Z,99996.47
2023-01-07T07:07:33.348Z,99978.88
2023-01-07T07:09:59.770Z,100003.69
2023-01-07T07:12:26.291Z,99997.38
2023-01-07T07:14:52.738Z,99991.81
2023-01-07T07:17:19.265Z,99948.63
2023-01-07T07:19:45.772Z,100002.63
2023-01-07T07:22:12.374Z,100019.88
2023-01-07T07:24:38.859Z,99997.06
2023-01-07T07:27:05.384Z,100024.31
2023-01-07T07:29:31.856Z,100037.72
2023-01-07T07:31:58.464Z,99993.34
2023-01-07T07:34:24.931Z,100069.56
2023-01-07T07:36:51.475Z,100087.94
2023-01-07T07:39:17.962Z,100065.78
2023-01-07T07:41:44.435Z,100052.91
2023-01-07T07:44:11.138Z,100027.44
2023-01-07T07:46:37.947Z,99961.84
2023-01-07T07:49:04.817Z,99978.78
2023-01-07T07:51:31.670Z,100037.00
2023-01-07T07:53:58.259Z,100040.06
2023-01-07T07:56:24.725Z,100058.19
2023-01-07T07:58:51.209Z,100068.88
2023-01-07T08:01:17.758Z,100078.75
2023-01-07T08:03:44.327Z,100059.81
2023-01-07T08:06:12.374Z,100065.28
2023-01-07T08:08:38.889Z,100137.34
2023-01-07T08:11:05.385Z,100153.09
2023-01-07T08:13:32.001Z,100145.69
2023-01-07T08:15:58.599Z,100136.34
2023-01-07T08:18:25.174Z,100167.94
2023-01-07T08:20:51.696Z,100198.97
2023-01-07T08:23:18.408Z,100160.13
2023-01-07T08:25:44.870Z,100198.88
2023-01-07T08:28:11.491Z,100234.03
2023-01-07T08:30:38.230Z,100178.75
2023-01-07T08:33:07.593Z,100240.06
2023-01-07T08:35:34.596Z,100266.66
2023-01-07T08:38:06.085Z,100269.84
2023-01-07T08:40:33.051Z,100270.16
2023-01-07T08:43:04.398Z,100307.34
2023-01-07T08:45:31.416Z,100331.81
2023-01-07T08:47:58.048Z,100344.22
2023-01-07T08:50:25.843Z,100289.47
2023-01-07T08:52:52.395Z,100376.28
2023-01-07T08:55:19.203Z,100377.50
2023-01-07T08:57:46.022Z,100397.50
2023-01-07T09:00:15.685Z,100408.94
2023-01-07T09:02:42.795Z,100437.19
2023-01-07T09:05:10.139Z,100491.13
2023-01-07T09:07:36.926Z,100528.81
2023-01-07T09:10:04.134Z,100515.03
2023-01-07T09:12:30.887Z,100536.94
2023-01-07T09:14:57.499Z,100638.75
2023-01-07T09:17:24.331Z,100629.75
2023-01-07T09:19:51.013Z,100690.09
2023-01-07T09:22:17.560Z,100714.97
2023-01-07T09:24:44.917Z,100697.91
2023-01-07T09:27:12.578Z,100730.03
2023-01-07T09:29:39.084Z,100668.88
2023-01-07T09:32:05.592Z,100741.84
2023-01-07T09:34:32.184Z,100744.66
2023-01-07T09:36:58.696Z,100660.03
2023-01-07T09:39:25.154Z,100728.19
2023-01-07T09:41:51.681Z,100690.06
2023-01-07T09:44:46.211Z,100672.66
2023-01-07T09:47:15.803Z,100653.56
2023-01-07T09:49:46.644Z,100621.28
2023-01-07T09:52:36.731Z,100558.34
2023-01-07T09:55:27.297Z,100532.09
2023-01-07T09:57:54.013Z,100501.44
2023-01-07T10:00:23.943Z,100542.03
2023-01-07T10:03:16.087Z,100534.38
2023-01-07T10:06:15.438Z,100524.38
2023-01-07T10:09:13.720Z,100534.84
2023-01-07T10:12:09.288Z,100626.28
2023-01-07T10:14:49.131Z,100621.00
2023-01-07T10:17:25.896Z,100593.53
2023-01-07T10:20:13.474Z,100575.88
2023-01-07T10:22:48.700Z,100604.06
2023-01-07T10:25:21.427Z,100637.72
2023-01-07T10:27:49.754Z,100631.50
2023-01-07T10:30:22.898Z,100585.16
2023-01-07T10:32:56.819Z,100628.88
2023-01-07T10:35:27.531Z,100640.31
2023-01-07T10:37:56.859Z,100628.16
2023-01-07T10:40:42.108Z,100639.03
2023-01-07T10:43:30.625Z,100617.41
2023-01-07T10:46:18.969Z,100612.78
2023-01-07T10:49:11.770Z,100597.06
2023-01-07T10:52:23.923Z,100608.16
2023-01-07T10:55:25.374Z,100581.78
2023-01-07T10:57:51.966Z,100598.50
2023-01-07T11:00:19.385Z,100608.69
2023-01-07T11:02:51.104Z,100594.81
2023-01-07T11:05:18.024Z,100611.06
2023-01-07T11:07:48.466Z,100603.06
2023-01-07T11:10:22.154Z,100607.00
2023-01-07T11:12:56.715Z,100629.41
2023-01-07T11:15:37.281Z,100593.16
2023-01-07T11:18:26.053Z,100668.13
2023-01-07T11:20:57.335Z,100635.94
2023-01-07T11:23:29.943Z,100649.50
2023-01-07T11:26:08.065Z,100615.69
2023-01-07T11:28:34.794Z,100665.84
2023-01-07T11:31:01.980Z,100593.47
2023-01-07T11:34:01.268Z,100642.78
2023-01-07T11:36:42.836Z,100551.19
2023-01-07T11:39:11.948Z,100641.59
2023-01-07T11:41:51.368Z,100647.81
2023-01-07T11:44:17.968Z,100625.50
2023-01-07T11:46:45.127Z,100641.13
2023-01-07T11:49:27.610Z,100650.19
2023-01-07T11:51:54.842Z,100612.91
2023-01-07T11:54:27.625Z,100621.38
2023-01-07T11:57:20.637Z,100556.22
2023-01-07T11:59:47.180Z,100663.97
2023-01-07T12:02:25.847Z,100676.44
2023-01-07T12:04:52.673Z,100658.91
2023-01-07T12:07:19.187Z,100675.78
2023-01-07T12:09:46.157Z,100669.97
2023-01-07T12:12:25.040Z,100663.78
2023-01-07T12:14:51.527Z,100637.75
2023-01-07T12:17:22.565Z,100647.09
2023-01-07T12:20:27.640Z,100650.47
2023-01-07T12:23:16.442Z,100610.31
2023-01-07T12:25:58.105Z,100663.03
2023-01-07T12:28:41.731Z,100611.75
2023-01-07T12:31:20.376Z,100570.63
2023-01-07T12:34:23.545Z,100638.94
2023-01-07T12:36:57.655Z,100627.78
2023-01-07T12:39:36.156Z,100616.81
2023-01-07T12:42:06.385Z,100616.03
2023-01-07T12:44:39.971Z,100642.69
2023-01-07T12:47:49.019Z,100634.31
2023-01-07T12:50:29.365Z,100641.69
2023-01-07T12:53:04.537Z,100659.47
2023-01-07T12:55:36.226Z,100574.97
2023-01-07T12:58:17.647Z,100633.41
2023-01-07T13:01:09.984Z,100611.13
2023-01-07T13:04:06.973Z,100617.19
2023-01-07T13:06:33.401Z,100613.34
2023-01-07T13:09:13.960Z,100546.41
2023-01-07T13:11:45.036Z,100579.91
2023-01-07T13:14:25.835Z,100587.84
2023-01-07T13:16:52.285Z,100527.38
2023-01-07T13:19:18.793Z,100532.94
2023-01-07T13:21:48.514Z,100439.47
2023-01-07T13:24:56.097Z,100505.41
2023-01-07T13:27:30.064Z,100503.41
2023-01-07T13:29:56.452Z,100473.69
2023-01-07T13:32:51.422Z,100457.69
2023-01-07T13:35:36.703Z,100442.81
2023-01-07T13:38:54.288Z,100415.53
2023-01-07T13:41:52.862Z,100400.72
2023-01-07T13:44:47.040Z,100415.59
2023-01-07T13:47:18.861Z,100374.28
2023-01-07T13:49:56.490Z,100389.03
2023-01-07T13:52:27.060Z,100327.75
2023-01-07T13:54:54.923Z,100390.72
2023-01-07T13:57:24.124Z,100401.97
2023-01-07T13:59:55.590Z,100401.22
2023-01-07T14:02:24.215Z,100401.00
2023-01-07T14:05:05.402Z,100339.56
2023-01-07T14:07:42.106Z,100397.44
2023-01-07T14:10:18.744Z,100365.81
2023-01-07T14:13:25.147Z,100386.88
2023-01-07T14:16:11.367Z,100380.78
2023-01-07T14:18:37.859Z,100363.34
2023-01-07T14:21:19.532Z,100377.41
2023-01-07T14:23:57.780Z,100370.41
2023-01-07T14:26:42.318Z,100372.06
2023-01-07T14:29:40.332Z,100357.75
2023-01-07T14:32:12.947Z,100363.44
2023-01-07T14:34:39.777Z,100352.75
2023-01-07T14:37:16.319Z,100359.00
2023-01-07T14:39:45.207Z,100355.91
2023-01-07T14:42:20.907Z,100288.53
2023-01-07T14:44:49.370Z,100312.88
2023-01-07T14:47:40.891Z,100328.13
2023-01-07T14:50:27.925Z,100216.53
2023-01-07T14:53:20.029Z,100217.22
2023-01-07T14:56:02.094Z,100116.69
2023-01-07T14:58:47.248Z,100169.16
2023-01-07T15:01:28.783Z,100186.66
2023-01-07T15:04:04.466Z,100120.69
2023-01-07T15:06:35.146Z,100123.38
2023-01-07T15:09:17.917Z,100089.66
2023-01-07T15:11:46.382Z,100094.88
2023-01-07T15:14:56.184Z,100096.84
2023-01-07T15:17:23.327Z,100075.47
2023-01-07T15:19:52.307Z,100042.44
2023-01-07T15:22:34.303Z,100053.31
2023-01-07T15:25:06.923Z,100003.34
2023-01-07T15:27:36.534Z,99978.34
2023-01-07T15:30:18.193Z,99927.47
2023-01-07T15:33:09.337Z,99910.31
2023-01-07T15:35:44.355Z,99804.13
2023-01-07T15:38:23.031Z,99899.66
2023-01-07T15:40:49.538Z,99870.16
2023-01-07T15:43:22.803Z,99861.91
2023-01-07T15:46:01.768Z,99809.63
2023-01-07T15:48:28.342Z,99854.16
2023-01-07T15:50:55.380Z,99869.28
2023-01-07T15:53:25.081Z,99884.69
2023-01-07T15:56:08.377Z,99867.53
2023-01-07T15:58:39.461Z,99816.03
2023-01-07T16:01:08.181Z,99846.00
2023-01-07T16:03:38.889Z,99829.94
2023-01-07T16:06:31.656Z,99791.38
2023-01-07T16:08:58.835Z,99733.16
2023-01-07T16:11:28.829Z,99754.09
2023-01-07T16:14:01.176Z,99714.31
2023-01-07T16:16:29.810Z,99717.28
2023-01-07T16:19:00.964Z,99777.25
2023-01-07T16:21:31.392Z,99792.16
2023-01-07T16:23:58.025Z,99708.03
2023-01-07T16:26:37.611Z,99806.03
2023-01-07T16:29:16.288Z,99745.91
2023-01-07T16:31:42.952Z,99722.97
2023-01-07T16:34:24.548Z,99810.59
2023-01-07T16:36:56.460Z,99806.34
2023-01-07T16:39:30.050Z,99773.00
2023-01-07T16:41:57.591Z,99776.19
2023-01-07T16:44:42.278Z,99757.22
2023-01-07T16:47:17.417Z,99777.69
2023-01-07T16:49:45.106Z,99669.56
2023-01-07T16:52:13.718Z,99674.97
2023-01-07T16:54:41.646Z,99725.34
2023-01-07T16:57:11.244Z,99719.56
2023-01-07T16:59:54.003Z,99692.31
2023-01-07T17:02:38.943Z,99691.84
2023-01-07T17:05:25.814Z,99702.25
2023-01-07T17:08:00.692Z,99619.06
2023-01-07T17:10:30.338Z,99691.13
2023-01-07T17:12:58.711Z,99635.47
2023-01-07T17:15:25.305Z,99676.69
2023-01-07T17:17:51.798Z,99668.50
2023-01-07T17:20:19.940Z,99651.97
2023-01-07T17:22:46.781Z,99627.59
2023-01-07T17:25:14.915Z,99623.88
2023-01-07T17:27:58.399Z,99531.22
2023-01-07T17:30:33.196Z,99587.88
2023-01-07T17:33:00.058Z,99483.75
2023-01-07T17:35:26.898Z,99526.22
2023-01-07T17:37:55.600Z,99542.81
2023-01-07T17:40:22.193Z,99515.28
2023-01-07T17:42:50.633Z,99468.34
2023-01-07T17:45:19.886Z,99523.81
2023-01-07T17:47:47.193Z,99434.03
2023-01-07T17:50:15.380Z,99486.63
2023-01-07T17:52:44.335Z,99449.34
2023-01-07T17:55:16.278Z,99454.44
2023-01-07T17:57:42.937Z,99435.44
2023-01-07T18:00:18.256Z,99468.63
2023-01-07T18:02:45.525Z,99457.72
2023-01-07T18:05:15.231Z,99387.22
2023-01-07T18:07:41.841Z,99433.78
2023-01-07T18:10:11.431Z,99456.09
2023-01-07T18:12:38.068Z,99443.88
2023-01-07T18:15:04.971Z,99481.19
2023-01-07T18:17:31.469Z,99485.97
2023-01-07T18:19:57.970Z,99496.94
2023-01-07T18:22:24.473Z,99435.78
2023-01-07T18:24:51.091Z,99392.28
2023-01-07T18:27:18.771Z,99435.03
2023-01-07T18:29:45.240Z,99454.84
2023-01-07T18:32:11.792Z,99528.09
2023-01-07T18:34:38.321Z,99535.47
2023-01-07T18:37:04.914Z,99560.59
2023-01-07T18:39:31.410Z,99568.19
2023-01-07T18:41:57.951Z,99583.25
2023-01-07T18:44:25.103Z,99604.41
2023-01-07T18:46:51.771Z,99576.59
2023-01-07T18:49:18.373Z,99594.13
2023-01-07T18:51:48.262Z,99604.00
2023-01-07T18:54:15.520Z,99608.09
2023-01-07T18:56:42.099Z,99535.34
2023-01-07T18:59:08.603Z,99603.47
2023-01-07T19:01:35.257Z,99597.00
2023-01-07T19:04:01.918Z,99608.31
2023-01-07T19:06:28.510Z,99614.69
2023-01-07T19:08:54.991Z,99615.25
2023-01-07T19:11:21.549Z,99614.69
2023-01-07T19:13:48.023Z,99508.25
2023-01-07T19:16:14.613Z,99552.44
2023-01-07T19:18:41.224Z,99636.97
2023-01-07T19:21:10.287Z,99628.28
2023-01-07T19:23:36.820Z,99637.78
2023-01-07T19:26:06.346Z,99633.59
2023-01-07T19:28:32.987Z,99623.72
2023-01-07T19:30:59.637Z,99630.53
2023-01-07T19:33:26.146Z,99531.41
2023-01-07T19:36:04.944Z,99598.44
2023-01-07T19:38:31.425Z,99554.84
2023-01-07T19:40:58.008Z,99504.69
2023-01-07T19:43:24.611Z,99553.16
2023-01-07T19:45:56.092Z,99496.28
2023-01-07T19:48:23.309Z,99525.41
2023-01-07T19:50:54.258Z,99475.25
2023-01-07T19:53:20.898Z,99530.03
2023-01-07T19:55:47.569Z,99453.06
2023-01-07T19:58:14.033Z,99506.59
2023-01-07T20:00:40.596Z,99453.06
2023-01-07T20:03:07.161Z,99504.69
2023-01-07T20:05:33.813Z,99511.69
2023-01-07T20:08:00.285Z,99515.19
2023-01-07T20:10:27.006Z,99497.31
2023-01-07T20:12:53.635Z,99508.16
2023-01-07T20:15:20.090Z,99329.69
2023-01-07T20:17:46.694Z,99513.94
2023-01-07T20:20:13.236Z,99502.16
2023-01-07T20:22:39.808Z,99531.03
2023-01-07T20:25:07.710Z,99486.53
2023-01-07T20:27:35.102Z,99526.97
2023-01-07T20:30:01.823Z,99541.03
2023-01-07T20:32:28.453Z,99526.53
2023-01-07T20:34:55.011Z,99491.09
2023-01-07T20:37:21.632Z,99450.69
2023-01-07T20:39:48.062Z,99495.47
2023-01-07T20:42:14.702Z,99511.31
2023-01-07T20:44:41.190Z,99509.84
2023-01-07T20:47:07.695Z,99504.63
2023-01-07T20:49:34.311Z,99500.88
2023-01-07T20:52:00.881Z,99515.28
2023-01-07T20:54:27.487Z,99527.16
2023-01-07T20:56:54.178Z,99508.00
2023-01-07T20:59:20.700Z,99529.53
2023-01-07T21:01:47.383Z,99520.97
2023-01-07T21:04:13.931Z,99514.81
2023-01-07T21:06:40.471Z,99516.38
2023-01-07T21:09:07.209Z,99536.09
2023-01-07T21:11:33.700Z,99469.22
2023-01-07T21:14:00.276Z,99483.78
2023-01-07T21:16:26.779Z,99466.25
2023-01-07T21:18:53.294Z,99510.03
2023-01-07T21:21:21.559Z,99478.34
2023-01-07T21:23:48.527Z,99499.84
2023-01-07T21:26:15.618Z,99494.75
2023-01-07T21:28:42.605Z,99491.72
2023-01-07T21:31:11.988Z,99513.34
2023-01-07T21:33:40.168Z,99494.66
2023-01-07T21:36:14.445Z,99523.44
2023-01-07T21:38:41.407Z,99490.03
2023-01-07T21:41:09.898Z,99469.63
2023-01-07T21:43:37.144Z,99473.69
2023-01-07T21:46:05.410Z,99481.38
2023-01-07T21:48:33.503Z,99479.69
2023-01-07T21:51:04.648Z,99409.91
2023-01-07T21:53:33.204Z,99408.66
2023-01-07T21:56:08.872Z,99459.97
2023-01-07T21:58:36.452Z,99443.00
2023-01-07T22:01:04.952Z,99460.66
2023-01-07T22:03:32.444Z,99452.59
2023-01-07T22:06:01.085Z,99444.69
2023-01-07T22:08:28.061Z,99448.88
2023-01-07T22:10:54.560Z,99414.69
2023-01-07T22:13:21.122Z,99475.38
2023-01-07T22:15:47.842Z,99469.59
2023-01-07T22:18:14.358Z,99438.00
2023-01-07T22:20:40.983Z,99430.75
2023-01-07T22:23:07.844Z,99469.03
2023-01-07T22:25:34.600Z,99407.16
2023-01-07T22:28:04.063Z,99450.59
2023-01-07T22:30:32.879Z,99465.16
2023-01-07T22:32:59.410Z,99417.31
2023-01-07T22:35:28.578Z,99476.63
2023-01-07T22:37:55.661Z,99460.09
2023-01-07T22:40:22.445Z,99473.56
2023-01-07T22:42:56.570Z,99485.13
2023-01-07T22:45:36.244Z,99465.75
2023-01-07T22:48:02.942Z,99416.91
2023-01-07T22:50:29.580Z,99456.38
2023-01-07T22:52:56.118Z,99404.81
2023-01-07T22:55:22.976Z,99482.44
2023-01-07T22:57:49.498Z,99486.28
2023-01-07T23:00:46.366Z,99474.41
2023-01-07T23:03:13.047Z,99469.53
2023-01-07T23:05:39.637Z,99503.06
2023-01-07T23:08:06.679Z,99468.97
2023-01-07T23:10:33.211Z,99480.03
2023-01-07T23:12:59.709Z,99466.22
2023-01-07T23:15:26.254Z,99397.78
2023-01-07T23:17:52.776Z,99460.53
2023-01-07T23:20:19.258Z,99418.16
2023-01-07T23:22:45.796Z,99470.88
2023-01-07T23:25:12.567Z,99489.78
2023-01-07T23:27:39.562Z,99486.25
2023-01-07T23:30:06.945Z,99515.25
2023-01-07T23:32:33.595Z,99518.66
2023-01-07T23:35:00.159Z,99458.44
2023-01-07T23:37:26.684Z,99523.44
2023-01-07T23:39:53.225Z,99532.50
2023-01-07T23:42:19.733Z,99549.50
2023-01-07T23:44:46.176Z,99521.53
2023-01-07T23:47:12.892Z,99473.88
2023-01-07T23:49:39.393Z,99415.34
2023-01-07T23:52:05.965Z,99488.63
2023-01-07T23:54:32.469Z,99510.47
2023-01-07T23:56:59.051Z,99514.19
2023-01-07T23:59:25.685Z,99533.97
